createdAt,value
2023-05-10T00:02:48.462Z,2.80
2023-05-10T00:05:50.997Z,2.58
2023-05-10T00:08:53.157Z,2.92
2023-05-10T00:11:55.789Z,3.08
2023-05-10T00:14:57.957Z,2.72
2023-05-10T00:18:00.425Z,3.42
2023-05-10T00:21:05.825Z,3.10
2023-05-10T00:24:08.442Z,3.25
2023-05-10T00:27:10.611Z,3.17
2023-05-10T00:30:13.227Z,3.20
2023-05-10T00:33:15.554Z,3.90
2023-05-10T00:36:18.021Z,3.53
2023-05-10T00:39:20.397Z,3.53
2023-05-10T00:42:23.230Z,3.72
2023-05-10T00:45:28.010Z,3.65
2023-05-10T00:48:30.805Z,3.28
2023-05-10T00:51:33.908Z,3.60
2023-05-10T00:54:36.515Z,3.33
2023-05-10T00:57:39.192Z,3.30
2023-05-10T01:00:44.748Z,3.45
2023-05-10T01:03:47.857Z,3.60
2023-05-10T01:06:51.268Z,3.72
2023-05-10T01:09:53.562Z,3.55
2023-05-10T01:12:56.394Z,3.55
2023-05-10T01:15:59.031Z,3.22
2023-05-10T01:19:01.656Z,3.47
2023-05-10T01:22:31.470Z,3.35
2023-05-10T01:25:45.896Z,3.08
2023-05-10T01:29:45.268Z,3.70
2023-05-10T01:32:56.769Z,3.53
2023-05-10T01:36:16.440Z,4.03
2023-05-10T01:39:26.863Z,3.75
2023-05-10T01:42:39.247Z,3.60
2023-05-10T01:45:59.211Z,3.50
2023-05-10T01:49:03.522Z,3.70
2023-05-10T01:52:11.642Z,3.65
2023-05-10T01:55:17.485Z,3.62
2023-05-10T01:58:24.006Z,4.18
2023-05-10T02:01:27.886Z,3.90
2023-05-10T02:04:31.054Z,4.00
2023-05-10T02:07:36.441Z,4.18
2023-05-10T02:10:41.205Z,3.80
2023-05-10T02:13:46.010Z,3.90
2023-05-10T02:16:50.047Z,3.80
2023-05-10T02:19:54.836Z,3.62
2023-05-10T02:22:58.560Z,3.42
2023-05-10T02:26:02.827Z,4.53
2023-05-10T02:29:06.635Z,4.03
2023-05-10T02:32:12.140Z,3.40
2023-05-10T02:35:16.117Z,3.92
2023-05-10T02:38:21.877Z,4.25
2023-05-10T02:41:25.317Z,4.28
2023-05-10T02:44:32.002Z,3.75
2023-05-10T02:47:34.394Z,4.00
2023-05-10T02:50:38.103Z,3.72
2023-05-10T02:53:44.687Z,4.22
2023-05-10T02:56:58.568Z,3.40
2023-05-10T03:00:02.122Z,4.05
2023-05-10T03:03:04.667Z,3.90
2023-05-10T03:06:06.956Z,4.62
2023-05-10T03:09:13.540Z,3.65
2023-05-10T03:12:34.477Z,3.95
2023-05-10T03:15:58.998Z,4.12
2023-05-10T03:19:11.769Z,4.03
2023-05-10T03:22:21.878Z,4.10
2023-05-10T03:25:25.021Z,3.58
2023-05-10T03:28:28.694Z,4.05
2023-05-10T03:31:31.026Z,4.30
2023-05-10T03:34:33.555Z,3.72
2023-05-10T03:37:36.215Z,4.05
2023-05-10T03:40:38.910Z,3.72
2023-05-10T03:43:42.087Z,4.12
2023-05-10T03:46:44.621Z,4.43
2023-05-10T03:49:46.904Z,4.12
2023-05-10T03:52:49.658Z,4.53
2023-05-10T03:55:52.024Z,4.20
2023-05-10T03:58:54.504Z,4.20
2023-05-10T04:01:57.025Z,4.40
2023-05-10T04:04:59.427Z,4.55
2023-05-10T04:08:01.551Z,4.45
2023-05-10T04:11:07.461Z,4.80
2023-05-10T04:14:10.024Z,4.85
2023-05-10T04:17:12.457Z,4.37
2023-05-10T04:20:15.028Z,4.43
2023-05-10T04:23:17.686Z,4.85
2023-05-10T04:26:19.863Z,4.40
2023-05-10T04:29:22.327Z,4.68
2023-05-10T04:32:24.670Z,4.78
2023-05-10T04:35:27.264Z,4.43
2023-05-10T04:38:30.030Z,4.90
2023-05-10T04:41:32.540Z,4.80
2023-05-10T04:44:34.728Z,5.05
2023-05-10T04:47:38.083Z,4.93
2023-05-10T04:50:40.500Z,4.93
2023-05-10T04:53:46.472Z,4.68
2023-05-10T04:56:53.335Z,4.72
2023-05-10T04:59:55.959Z,5.12
2023-05-10T05:02:58.378Z,5.47
2023-05-10T05:06:00.920Z,5.00
2023-05-10T05:09:03.448Z,5.15
2023-05-10T05:12:06.185Z,5.70
2023-05-10T05:15:10.341Z,5.40
2023-05-10T05:18:12.829Z,5.40
2023-05-10T05:21:16.874Z,5.15
2023-05-10T05:24:19.345Z,4.95
2023-05-10T05:27:25.371Z,5.37
2023-05-10T05:30:27.860Z,5.10
2023-05-10T05:33:30.253Z,5.18
2023-05-10T05:36:34.537Z,5.93
2023-05-10T05:39:38.294Z,5.07
2023-05-10T05:42:40.711Z,5.28
2023-05-10T05:45:42.957Z,5.37
2023-05-10T05:48:45.708Z,5.32
2023-05-10T05:51:48.477Z,5.25
2023-05-10T05:54:50.969Z,5.40
2023-05-10T05:57:53.142Z,5.50
2023-05-10T06:00:55.643Z,5.12
2023-05-10T06:03:58.267Z,5.05
2023-05-10T06:07:00.539Z,5.10
2023-05-10T06:10:04.107Z,5.03
2023-05-10T06:13:06.607Z,5.87
2023-05-10T06:16:09.499Z,5.60
2023-05-10T06:19:11.852Z,5.05
2023-05-10T06:22:14.351Z,5.07
2023-05-10T06:25:18.991Z,5.07
2023-05-10T06:28:22.002Z,4.93
2023-05-10T06:31:24.359Z,4.87
2023-05-10T06:34:27.242Z,5.07
2023-05-10T06:37:29.360Z,4.82
2023-05-10T06:40:31.927Z,4.72
2023-05-10T06:43:34.089Z,4.90
2023-05-10T06:46:36.757Z,5.18
2023-05-10T06:49:38.956Z,4.87
2023-05-10T06:52:41.491Z,4.45
2023-05-10T06:55:43.710Z,4.50
2023-05-10T06:58:46.556Z,4.50
2023-05-10T07:01:49.030Z,4.40
2023-05-10T07:04:52.938Z,4.30
2023-05-10T07:07:55.201Z,4.55
2023-05-10T07:11:02.623Z,4.12
2023-05-10T07:14:04.752Z,4.20
2023-05-10T07:17:07.313Z,4.05
2023-05-10T07:20:09.893Z,4.32
2023-05-10T07:23:12.365Z,4.35
2023-05-10T07:26:15.816Z,4.75
2023-05-10T07:29:18.230Z,4.28
2023-05-10T07:32:20.530Z,4.70
2023-05-10T07:35:23.082Z,4.60
2023-05-10T07:38:25.290Z,4.00
2023-05-10T07:41:28.197Z,4.15
2023-05-10T07:44:30.425Z,4.20
2023-05-10T07:47:32.984Z,3.47
2023-05-10T07:50:35.208Z,3.30
2023-05-10T07:53:38.594Z,3.70
2023-05-10T07:56:45.680Z,3.72
2023-05-10T07:59:48.478Z,3.12
2023-05-10T08:02:50.676Z,3.40
2023-05-10T08:05:53.126Z,3.67
2023-05-10T08:08:55.472Z,3.50
2023-05-10T08:11:59.719Z,3.33
2023-05-10T08:15:01.928Z,3.70
2023-05-10T08:18:05.213Z,3.58
2023-05-10T08:21:07.674Z,3.70
2023-05-10T08:24:10.141Z,3.80
2023-05-10T08:27:12.389Z,3.47
2023-05-10T08:30:14.986Z,3.55
2023-05-10T08:33:19.294Z,3.60
2023-05-10T08:36:22.971Z,3.00
2023-05-10T08:39:30.225Z,3.33
2023-05-10T08:42:37.210Z,3.30
2023-05-10T08:45:42.217Z,3.47
2023-05-10T08:48:46.759Z,3.78
2023-05-10T08:51:53.165Z,3.75
2023-05-10T08:54:55.753Z,3.40
2023-05-10T08:57:58.183Z,3.17
2023-05-10T09:01:02.177Z,3.50
2023-05-10T09:04:05.352Z,3.10
2023-05-10T09:07:08.267Z,3.60
2023-05-10T09:10:14.257Z,3.03
2023-05-10T09:13:18.378Z,3.30
2023-05-10T09:16:22.486Z,3.55
2023-05-10T09:19:25.145Z,3.20
2023-05-10T09:22:28.090Z,3.40
2023-05-10T09:25:34.947Z,3.45
2023-05-10T09:28:58.386Z,3.20
2023-05-10T09:32:01.252Z,3.28
2023-05-10T09:35:15.174Z,2.60
2023-05-10T09:38:17.822Z,3.12
2023-05-10T09:41:22.572Z,3.10
2023-05-10T09:44:26.848Z,3.87
2023-05-10T09:47:29.099Z,3.35
2023-05-10T09:50:31.894Z,2.80
2023-05-10T09:53:34.176Z,3.30
2023-05-10T09:56:38.518Z,2.80
2023-05-10T09:59:45.026Z,2.92
2023-05-10T10:02:55.239Z,2.65
2023-05-10T10:05:58.078Z,2.90
2023-05-10T10:09:00.437Z,3.15
2023-05-10T10:12:03.838Z,3.12
2023-05-10T10:15:07.658Z,3.00
2023-05-10T10:18:14.179Z,2.50
2023-05-10T10:21:16.832Z,2.70
2023-05-10T10:24:19.293Z,2.50
2023-05-10T10:27:29.565Z,2.53
2023-05-10T10:30:43.647Z,2.70
2023-05-10T10:34:00.359Z,2.95
2023-05-10T10:37:07.661Z,2.72
2023-05-10T10:40:33.656Z,2.70
2023-05-10T10:43:37.318Z,2.40
2023-05-10T10:46:59.529Z,3.10
2023-05-10T10:50:02.073Z,2.53
2023-05-10T10:53:12.151Z,2.40
2023-05-10T10:59:28.190Z,2.87
2023-05-10T11:02:51.315Z,2.65
2023-05-10T11:05:59.518Z,2.42
2023-05-10T11:09:13.039Z,2.35
2023-05-10T11:12:15.419Z,2.20
2023-05-10T11:15:18.192Z,2.28
2023-05-10T11:18:30.524Z,2.33
2023-05-10T11:21:34.148Z,2.15
2023-05-10T11:24:36.793Z,2.60
2023-05-10T11:27:39.504Z,2.00
2023-05-10T11:30:44.105Z,2.10
2023-05-10T11:33:49.410Z,2.15
2023-05-10T11:36:54.734Z,2.10
2023-05-10T11:39:57.487Z,1.95
2023-05-10T11:43:00.496Z,1.70
2023-05-10T11:46:04.025Z,1.80
2023-05-10T11:49:08.304Z,2.03
2023-05-10T11:52:12.402Z,1.80
2023-05-10T11:55:14.870Z,1.90
2023-05-10T11:58:19.172Z,2.10
2023-05-10T12:01:22.181Z,2.28
2023-05-10T12:04:28.680Z,2.12
2023-05-10T12:07:30.979Z,1.80
2023-05-10T12:10:35.785Z,2.12
2023-05-10T12:13:42.817Z,2.12
2023-05-10T12:16:45.428Z,2.10
2023-05-10T12:19:48.171Z,2.00
2023-05-10T12:22:55.626Z,1.80
2023-05-10T12:26:05.575Z,2.65
2023-05-10T12:29:14.954Z,2.17
2023-05-10T12:32:17.222Z,2.22
2023-05-10T12:35:24.910Z,2.30
2023-05-10T12:38:48.807Z,1.87
2023-05-10T12:41:55.905Z,1.83
2023-05-10T12:44:58.462Z,1.85
2023-05-10T12:48:01.064Z,1.75
2023-05-10T12:51:04.641Z,2.30
2023-05-10T12:54:07.059Z,2.22
2023-05-10T12:57:09.220Z,1.90
2023-05-10T13:00:12.257Z,1.77
2023-05-10T13:03:14.508Z,1.62
2023-05-10T13:06:17.005Z,2.10
2023-05-10T13:09:19.826Z,1.70
2023-05-10T13:12:22.286Z,1.48
2023-05-10T13:15:24.602Z,1.85
2023-05-10T13:18:27.650Z,1.55
2023-05-10T13:21:29.964Z,1.48
2023-05-10T13:24:32.519Z,1.65
2023-05-10T13:27:34.740Z,1.67
2023-05-10T13:30:37.209Z,1.85
2023-05-10T13:33:39.492Z,1.55
2023-05-10T13:36:42.101Z,2.00
2023-05-10T13:39:44.373Z,1.60
2023-05-10T13:42:46.922Z,2.50
2023-05-10T13:45:49.158Z,2.00
2023-05-10T13:48:51.615Z,1.87
2023-05-10T13:51:53.766Z,1.73
2023-05-10T13:54:56.252Z,2.30
2023-05-10T13:57:58.928Z,1.75
2023-05-10T14:01:01.489Z,1.50
2023-05-10T14:04:04.493Z,1.80
2023-05-10T14:07:06.787Z,1.85
2023-05-10T14:10:09.410Z,1.27
2023-05-10T14:13:11.583Z,1.45
2023-05-10T14:16:15.703Z,1.40
2023-05-10T14:19:18.425Z,1.45
2023-05-10T14:22:20.921Z,1.60
2023-05-10T14:25:23.711Z,1.60
2023-05-10T14:28:26.269Z,1.55
2023-05-10T14:31:28.617Z,1.30
2023-05-10T14:34:31.094Z,1.50
2023-05-10T14:37:33.461Z,1.65
2023-05-10T14:40:35.902Z,1.50
2023-05-10T14:43:38.006Z,1.80
2023-05-10T14:46:41.083Z,1.27
2023-05-10T14:49:43.217Z,1.27
2023-05-10T14:52:45.647Z,1.60
2023-05-10T14:55:47.774Z,1.52
2023-05-10T14:58:51.382Z,1.80
2023-05-10T15:01:53.995Z,1.70
2023-05-10T15:04:56.819Z,1.40
2023-05-10T15:07:59.578Z,1.45
2023-05-10T15:11:02.482Z,1.17
2023-05-10T15:14:04.630Z,1.40
2023-05-10T15:17:08.449Z,1.08
2023-05-10T15:20:10.830Z,1.50
2023-05-10T15:23:13.496Z,1.23
2023-05-10T15:26:16.676Z,1.30
2023-05-10T15:29:20.925Z,1.30
2023-05-10T15:32:23.163Z,1.42
2023-05-10T15:35:26.947Z,1.30
2023-05-10T15:38:29.128Z,1.60
2023-05-10T15:41:31.569Z,1.45
2023-05-10T15:44:35.921Z,1.42
2023-05-10T15:47:40.421Z,1.52
2023-05-10T15:50:42.765Z,1.58
2023-05-10T15:54:00.536Z,1.30
2023-05-10T15:57:08.140Z,1.27
2023-05-10T16:00:12.052Z,1.40
2023-05-10T16:03:14.111Z,1.10
2023-05-10T16:06:16.649Z,1.55
2023-05-10T16:09:18.787Z,1.20
2023-05-10T16:12:21.355Z,1.50
2023-05-10T16:15:23.486Z,1.30
2023-05-10T16:18:26.005Z,1.70
2023-05-10T16:21:29.875Z,1.50
2023-05-10T16:24:32.450Z,1.80
2023-05-10T16:27:35.117Z,1.30
2023-05-10T16:30:37.827Z,1.85
2023-05-10T16:33:40.045Z,1.90
2023-05-10T16:36:42.571Z,1.60
2023-05-10T16:39:44.737Z,1.25
2023-05-10T16:42:47.238Z,1.42
2023-05-10T16:45:49.478Z,1.52
2023-05-10T16:48:51.924Z,1.35
2023-05-10T16:51:54.064Z,1.50
2023-05-10T16:54:56.861Z,2.37
2023-05-10T16:58:00.882Z,1.80
2023-05-10T17:01:03.559Z,2.00
2023-05-10T17:04:05.792Z,2.08
2023-05-10T17:07:08.753Z,1.90
2023-05-10T17:10:12.101Z,1.83
2023-05-10T17:13:14.606Z,2.20
2023-05-10T17:16:16.951Z,2.05
2023-05-10T17:19:19.480Z,2.30
2023-05-10T17:22:21.623Z,2.50
2023-05-10T17:25:24.098Z,1.98
2023-05-10T17:28:26.306Z,2.05
2023-05-10T17:31:29.737Z,2.12
2023-05-10T17:34:32.011Z,2.37
2023-05-10T17:37:34.526Z,2.20
2023-05-10T17:40:40.531Z,2.45
2023-05-10T17:43:43.481Z,2.10
2023-05-10T17:46:45.815Z,1.90
2023-05-10T17:49:48.313Z,2.22
2023-05-10T17:52:50.476Z,2.30
2023-05-10T17:55:53.736Z,2.22
2023-05-10T17:58:55.908Z,2.45
2023-05-10T18:01:58.315Z,2.10
2023-05-10T18:05:01.653Z,2.30
2023-05-10T18:08:05.225Z,2.10
2023-05-10T18:11:07.787Z,2.25
2023-05-10T18:14:09.925Z,2.62
2023-05-10T18:17:12.496Z,2.53
2023-05-10T18:20:15.004Z,2.47
2023-05-10T18:23:17.456Z,2.53
2023-05-10T18:26:19.617Z,2.33
2023-05-10T18:29:22.252Z,2.40
2023-05-10T18:32:24.538Z,2.58
2023-05-10T18:35:27.040Z,2.40
2023-05-10T18:38:29.300Z,2.30
2023-05-10T18:41:31.807Z,2.17
2023-05-10T18:44:34.233Z,2.30
2023-05-10T18:47:36.738Z,2.40
2023-05-10T18:50:39.454Z,2.25
2023-05-10T18:53:41.863Z,1.92
2023-05-10T18:56:45.311Z,2.25
2023-05-10T18:59:48.909Z,2.10
2023-05-10T19:02:51.152Z,2.45
2023-05-10T19:05:53.591Z,2.67
2023-05-10T19:08:55.723Z,2.17
2023-05-10T19:11:58.211Z,2.50
2023-05-10T19:15:00.370Z,2.42
2023-05-10T19:18:03.276Z,2.33
2023-05-10T19:21:08.817Z,2.20
2023-05-10T19:24:11.917Z,2.03
2023-05-10T19:27:14.979Z,2.12
2023-05-10T19:30:17.705Z,2.00
2023-05-10T19:33:20.222Z,2.45
2023-05-10T19:36:23.085Z,1.90
2023-05-10T19:39:27.066Z,2.17
2023-05-10T19:42:30.042Z,2.20
2023-05-10T19:45:35.038Z,2.12
2023-05-10T19:48:39.056Z,2.60
2023-05-10T19:51:41.320Z,2.00
2023-05-10T19:54:44.836Z,2.12
2023-05-10T19:57:46.985Z,2.42
2023-05-10T20:00:49.444Z,1.90
2023-05-10T20:03:52.077Z,2.03
2023-05-10T20:06:54.386Z,2.22
2023-05-10T20:09:56.807Z,2.47
2023-05-10T20:13:00.293Z,2.30
2023-05-10T20:16:03.795Z,2.30
2023-05-10T20:19:06.251Z,2.70
2023-05-10T20:22:09.388Z,2.30
2023-05-10T20:25:12.011Z,2.30
2023-05-10T20:28:14.462Z,2.65
2023-05-10T20:31:16.796Z,2.62
2023-05-10T20:34:19.361Z,2.70
2023-05-10T20:37:21.955Z,2.17
2023-05-10T20:40:24.447Z,2.22
2023-05-10T20:43:26.664Z,2.03
2023-05-10T20:46:30.245Z,2.58
2023-05-10T20:49:32.639Z,2.45
2023-05-10T20:52:35.087Z,2.17
2023-05-10T20:55:37.286Z,2.50
2023-05-10T20:58:39.744Z,2.30
2023-05-10T21:01:42.235Z,2.08
2023-05-10T21:04:44.740Z,2.03
2023-05-10T21:07:46.895Z,2.12
2023-05-10T21:10:49.419Z,2.25
2023-05-10T21:13:51.758Z,2.37
2023-05-10T21:16:54.466Z,2.17
2023-05-10T21:19:56.623Z,2.17
2023-05-10T21:22:59.072Z,2.30
2023-05-10T21:26:03.233Z,2.10
2023-05-10T21:29:06.085Z,2.42
2023-05-10T21:32:08.372Z,1.98
2023-05-10T21:35:10.962Z,2.30
2023-05-10T21:38:13.168Z,2.15
2023-05-10T21:41:15.838Z,2.47
2023-05-10T21:44:18.098Z,2.40
2023-05-10T21:47:20.608Z,1.95
2023-05-10T21:50:22.929Z,2.22
2023-05-10T21:53:25.372Z,2.40
2023-05-10T21:56:27.497Z,2.20
2023-05-10T21:59:29.917Z,2.20
2023-05-10T22:02:32.107Z,2.20
2023-05-10T22:05:34.966Z,2.37
2023-05-10T22:08:37.133Z,2.20
2023-05-10T22:11:39.571Z,2.35
2023-05-10T22:14:41.712Z,2.28
2023-05-10T22:17:44.210Z,2.10
2023-05-10T22:20:46.556Z,2.45
2023-05-10T22:23:49.010Z,2.05
2023-05-10T22:26:54.500Z,2.10
2023-05-10T22:29:56.975Z,2.10
2023-05-10T22:32:59.640Z,2.50
2023-05-10T22:36:02.156Z,1.92
2023-05-10T22:39:04.310Z,2.20
2023-05-10T22:42:06.918Z,1.98
2023-05-10T22:45:09.784Z,2.22
2023-05-10T22:48:12.670Z,2.40
2023-05-10T22:51:14.868Z,2.35
2023-05-10T22:54:17.275Z,2.10
2023-05-10T22:57:19.656Z,1.98
2023-05-10T23:00:22.151Z,2.45
2023-05-10T23:03:25.257Z,2.10
2023-05-10T23:06:28.230Z,2.65
2023-05-10T23:09:30.415Z,2.10
2023-05-10T23:12:33.640Z,2.33
2023-05-10T23:15:36.263Z,1.83
2023-05-10T23:18:39.562Z,2.33
2023-05-10T23:21:41.701Z,2.28
2023-05-10T23:24:44.129Z,2.12
2023-05-10T23:27:46.598Z,2.40
2023-05-10T23:30:55.539Z,2.25
2023-05-10T23:33:57.712Z,2.50
2023-05-10T23:37:00.223Z,2.25
2023-05-10T23:40:03.048Z,2.50
2023-05-10T23:43:05.454Z,2.17
2023-05-10T23:46:07.697Z,2.28
2023-05-10T23:49:10.107Z,2.25
2023-05-10T23:52:12.509Z,2.70
2023-05-10T23:55:14.992Z,2.35
2023-05-10T23:58:17.210Z,2.50
